createdAt,value
2019-01-08T00:00:09.332Z,14.18
2019-01-08T00:02:38.562Z,18.23
2019-01-08T00:05:09.438Z,15.28
2019-01-08T00:07:39.740Z,23.80
2019-01-08T00:10:10.087Z,19.35
2019-01-08T00:12:40.535Z,16.48
2019-01-08T00:15:09.371Z,18.25
2019-01-08T00:17:40.927Z,10.15
2019-01-08T00:20:09.625Z,19.87
2019-01-08T00:22:38.808Z,16.15
2019-01-08T00:25:09.073Z,13.22
2019-01-08T00:27:41.018Z,15.08
2019-01-08T00:30:09.772Z,18.27
2019-01-08T00:32:38.434Z,15.58
2019-01-08T00:35:07.712Z,17.42
2019-01-08T00:37:36.427Z,17.57
2019-01-08T00:40:07.061Z,17.90
2019-01-08T00:42:41.281Z,15.00
2019-01-08T00:45:09.903Z,19.95
2019-01-08T00:47:41.627Z,14.90
2019-01-08T00:50:10.413Z,21.82
2019-01-08T00:52:40.806Z,14.87
2019-01-08T00:55:10.592Z,11.75
2019-01-08T00:57:42.763Z,17.48
2019-01-08T01:00:12.037Z,16.37
2019-01-08T01:02:45.107Z,12.20
2019-01-08T01:05:13.721Z,18.48
2019-01-08T01:07:42.321Z,25.00
2019-01-08T01:10:12.719Z,19.20
2019-01-08T01:12:45.590Z,20.17
2019-01-08T01:15:14.207Z,15.13
2019-01-08T01:17:42.845Z,21.95
2019-01-08T01:20:11.433Z,20.70
2019-01-08T01:22:41.323Z,20.17
2019-01-08T01:25:10.702Z,25.50
2019-01-08T01:27:43.006Z,19.73
2019-01-08T01:30:12.375Z,19.27
2019-01-08T01:32:41.750Z,17.23
2019-01-08T01:35:11.357Z,22.93
2019-01-08T01:37:44.659Z,24.70
2019-01-08T01:40:20.202Z,19.70
2019-01-08T01:42:49.387Z,25.50
2019-01-08T01:45:20.241Z,27.62
2019-01-08T01:47:51.515Z,24.37
2019-01-08T01:50:31.611Z,23.92
2019-01-08T01:55:54.438Z,29.85
2019-01-08T01:58:27.470Z,26.05
2019-01-08T02:00:57.650Z,24.37
2019-01-08T02:03:26.437Z,27.77
2019-01-08T02:06:02.776Z,25.30
2019-01-08T02:08:32.600Z,29.42
2019-01-08T02:14:22.417Z,21.80
2019-01-08T02:23:29.928Z,15.35
2019-01-08T02:26:01.092Z,15.58
2019-01-08T02:28:51.846Z,16.25
2019-01-08T02:31:22.231Z,12.58
2019-01-08T02:33:53.670Z,15.78
2019-01-08T02:36:23.676Z,13.32
2019-01-08T02:38:56.708Z,13.65
2019-01-08T02:41:33.516Z,15.10
2019-01-08T02:47:18.197Z,11.00
2019-01-08T02:49:46.897Z,12.23
2019-01-08T03:05:37.080Z,8.35
2019-01-08T03:08:09.763Z,15.58
2019-01-08T03:10:41.595Z,14.38
2019-01-08T03:16:12.637Z,16.10
2019-01-08T03:18:41.559Z,17.20
2019-01-08T03:21:12.641Z,14.30
2019-01-08T03:23:45.480Z,14.85
2019-01-08T03:26:14.208Z,14.30
2019-01-08T03:31:41.853Z,9.90
2019-01-08T03:39:57.745Z,14.68
2019-01-08T03:42:34.659Z,7.33
2019-01-08T03:50:58.794Z,7.47
2019-01-08T03:53:27.478Z,6.62
2019-01-08T03:59:23.788Z,8.90
2019-01-08T04:01:52.827Z,10.50
2019-01-08T04:04:22.498Z,8.93
2019-01-08T04:06:51.264Z,10.32
2019-01-08T04:09:20.074Z,9.65
2019-01-08T04:11:48.814Z,9.40
2019-01-08T04:14:19.097Z,7.47
2019-01-08T04:16:49.492Z,7.55
2019-01-08T04:19:18.136Z,7.03
2019-01-08T04:21:48.423Z,7.37
2019-01-08T04:24:17.175Z,7.40
2019-01-08T04:26:47.752Z,5.12
2019-01-08T04:29:19.013Z,7.03
2019-01-08T04:31:50.916Z,4.15
2019-01-08T04:44:10.847Z,3.12
2019-01-08T04:46:40.159Z,11.15
2019-01-08T04:49:09.064Z,5.95
2019-01-08T04:51:38.456Z,9.23
2019-01-08T04:54:07.209Z,6.75
2019-01-08T04:56:35.880Z,5.58
2019-01-08T04:59:18.849Z,6.97
2019-01-08T05:04:56.182Z,6.30
2019-01-08T05:11:14.960Z,8.65
2019-01-08T05:13:44.723Z,8.58
2019-01-08T05:16:15.101Z,6.75
2019-01-08T05:18:46.838Z,7.97
2019-01-08T05:21:16.373Z,7.53
2019-01-08T05:27:28.900Z,4.60
2019-01-08T05:30:08.015Z,3.83
2019-01-08T05:32:38.421Z,4.25
2019-01-08T05:35:07.753Z,3.83
2019-01-08T05:37:36.482Z,4.22
2019-01-08T05:40:07.922Z,3.67
2019-01-08T05:42:38.042Z,6.25
2019-01-08T05:45:06.683Z,3.40
2019-01-08T05:47:43.135Z,2.70
2019-01-08T05:50:15.102Z,2.60
2019-01-08T05:52:43.731Z,3.00
2019-01-08T05:55:12.358Z,2.80
2019-01-08T05:58:10.784Z,3.60
2019-01-08T06:03:43.800Z,2.65
2019-01-08T06:06:13.387Z,3.15
2019-01-08T06:11:35.695Z,5.78
2019-01-08T06:14:04.378Z,4.45
2019-01-08T06:16:34.193Z,5.20
2019-01-08T06:19:08.212Z,5.42
2019-01-08T06:21:40.282Z,6.15
2019-01-08T06:24:09.961Z,5.10
2019-01-08T06:26:51.529Z,5.90
2019-01-08T06:29:22.709Z,6.55
2019-01-08T06:31:53.312Z,5.50
2019-01-08T06:34:32.444Z,5.30
2019-01-08T06:37:00.982Z,6.30
2019-01-08T06:39:29.623Z,6.00
2019-01-08T06:42:01.146Z,5.72
2019-01-08T06:45:51.240Z,5.40
2019-01-08T06:50:56.260Z,5.20
2019-01-08T06:53:32.200Z,5.70
2019-01-08T06:59:11.232Z,5.03
2019-01-08T07:01:40.331Z,5.10
2019-01-08T07:04:08.955Z,5.85
2019-01-08T07:06:37.537Z,5.28
2019-01-08T07:09:07.314Z,6.37
2019-01-08T07:11:35.895Z,5.83
2019-01-08T07:14:04.627Z,6.28
2019-01-08T07:16:33.128Z,5.60
2019-01-08T07:19:08.835Z,5.85
2019-01-08T07:21:37.465Z,6.35
2019-01-08T07:24:06.059Z,5.50
2019-01-08T07:26:36.176Z,5.28
2019-01-08T07:29:06.479Z,5.33
2019-01-08T07:31:36.736Z,5.67
2019-01-08T07:34:05.905Z,5.92
2019-01-08T07:36:34.488Z,6.28
2019-01-08T07:39:05.043Z,4.87
2019-01-08T07:41:35.367Z,13.88
2019-01-08T07:44:04.140Z,5.37
2019-01-08T07:46:35.439Z,5.55
2019-01-08T07:49:04.135Z,3.62
2019-01-08T07:51:35.508Z,5.67
2019-01-08T07:54:04.044Z,5.03
2019-01-08T07:56:32.624Z,5.12
2019-01-08T07:59:01.236Z,5.12
2019-01-08T08:01:32.605Z,4.85
2019-01-08T08:04:03.607Z,4.37
2019-01-08T08:06:34.382Z,5.62
2019-01-08T08:09:03.626Z,7.05
2019-01-08T08:11:32.183Z,4.42
2019-01-08T08:14:00.778Z,5.90
2019-01-08T08:16:30.787Z,6.90
2019-01-08T08:19:01.290Z,5.95
2019-01-08T08:21:32.809Z,8.33
2019-01-08T08:24:02.014Z,5.00
2019-01-08T08:26:30.673Z,4.58
2019-01-08T08:28:59.236Z,9.98
2019-01-08T08:31:29.400Z,6.83
2019-01-08T08:34:02.088Z,8.75
2019-01-08T08:36:30.936Z,9.10
2019-01-08T08:38:59.524Z,8.23
2019-01-08T08:41:28.732Z,7.60
2019-01-08T08:43:57.259Z,8.23
2019-01-08T08:46:28.297Z,8.95
2019-01-08T08:48:56.847Z,8.45
2019-01-08T08:51:27.088Z,8.18
2019-01-08T08:53:57.045Z,6.58
2019-01-08T08:56:26.644Z,6.55
2019-01-08T08:58:59.325Z,7.97
2019-01-08T09:01:28.026Z,7.95
2019-01-08T09:03:58.155Z,5.95
2019-01-08T09:06:28.297Z,6.28
2019-01-08T09:08:56.927Z,7.30
2019-01-08T09:11:25.728Z,5.83
2019-01-08T09:13:56.592Z,7.10
2019-01-08T09:16:26.756Z,6.67
2019-01-08T09:18:55.564Z,5.72
2019-01-08T09:21:26.160Z,6.97
2019-01-08T09:23:57.598Z,4.10
2019-01-08T09:26:28.242Z,5.25
2019-01-08T09:28:57.775Z,5.22
2019-01-08T09:31:27.316Z,5.97
2019-01-08T09:33:58.544Z,5.58
2019-01-08T09:36:27.076Z,7.05
2019-01-08T09:38:55.851Z,6.10
2019-01-08T09:41:25.020Z,8.08
2019-01-08T09:43:53.618Z,6.83
2019-01-08T09:46:22.128Z,8.13
2019-01-08T09:48:50.605Z,7.67
2019-01-08T09:51:19.206Z,6.42
2019-01-08T09:53:47.683Z,8.83
2019-01-08T09:56:16.225Z,7.55
2019-01-08T09:58:44.818Z,7.10
2019-01-08T10:01:13.305Z,6.72
2019-01-08T10:03:41.794Z,8.08
2019-01-08T10:06:10.291Z,8.25
2019-01-08T10:08:38.860Z,7.78
2019-01-08T10:11:07.485Z,8.75
2019-01-08T10:13:37.656Z,6.87
2019-01-08T10:16:06.203Z,9.58
2019-01-08T10:18:34.722Z,8.00
2019-01-08T10:21:05.586Z,8.20
2019-01-08T10:23:34.242Z,7.70
2019-01-08T10:26:02.820Z,9.60
2019-01-08T10:28:31.359Z,9.33
2019-01-08T10:30:59.862Z,8.75
2019-01-08T10:33:30.019Z,12.68
2019-01-08T10:35:58.742Z,7.75
2019-01-08T10:38:28.730Z,7.75
2019-01-08T10:40:57.228Z,7.92
2019-01-08T10:43:25.722Z,8.45
2019-01-08T10:45:54.261Z,7.97
2019-01-08T10:48:22.832Z,7.50
2019-01-08T10:50:51.412Z,8.43
2019-01-08T10:53:19.991Z,7.20
2019-01-08T10:55:48.478Z,7.72
2019-01-08T10:58:16.968Z,7.90
2019-01-08T11:00:45.513Z,7.03
2019-01-08T11:03:13.965Z,6.85
2019-01-08T11:05:42.457Z,7.70
2019-01-08T11:08:10.955Z,8.58
2019-01-08T11:10:39.458Z,7.83
2019-01-08T11:13:07.948Z,6.80
2019-01-08T11:15:36.497Z,6.85
2019-01-08T11:18:05.074Z,7.08
2019-01-08T11:20:33.568Z,6.42
2019-01-08T11:23:02.113Z,7.60
2019-01-08T11:25:32.732Z,6.03
2019-01-08T11:28:01.330Z,6.50
2019-01-08T11:30:29.882Z,5.47
2019-01-08T11:32:58.403Z,6.67
2019-01-08T11:35:26.948Z,6.33
2019-01-08T11:37:55.429Z,6.10
2019-01-08T11:40:23.935Z,6.03
2019-01-08T11:42:52.455Z,5.67
2019-01-08T11:45:20.922Z,4.80
2019-01-08T11:47:50.799Z,5.15
2019-01-08T11:50:21.030Z,6.08
2019-01-08T11:52:49.613Z,5.97
2019-01-08T11:55:18.151Z,5.92
2019-01-08T11:57:46.648Z,5.97
2019-01-08T12:00:16.299Z,5.40
2019-01-08T12:02:47.915Z,5.47
2019-01-08T12:05:14.963Z,5.05
2019-01-08T12:07:43.607Z,5.72
2019-01-08T12:10:12.217Z,6.00
2019-01-08T12:12:40.769Z,5.03
2019-01-08T12:15:09.388Z,5.65
2019-01-08T12:17:37.935Z,4.87
2019-01-08T12:20:09.814Z,5.10
2019-01-08T12:22:41.242Z,5.15
2019-01-08T12:25:09.834Z,5.10
2019-01-08T12:27:38.352Z,4.62
2019-01-08T12:30:09.294Z,5.00
2019-01-08T12:32:37.810Z,5.33
2019-01-08T12:35:06.265Z,4.75
2019-01-08T12:37:34.766Z,4.60
2019-01-08T12:40:03.621Z,5.70
2019-01-08T12:42:32.104Z,5.70
2019-01-08T12:45:00.652Z,6.45
2019-01-08T12:47:29.202Z,5.78
2019-01-08T12:49:57.783Z,6.85
2019-01-08T12:52:26.371Z,6.20
2019-01-08T12:54:54.857Z,5.80
2019-01-08T12:57:23.402Z,7.05
2019-01-08T12:59:52.405Z,5.97
2019-01-08T13:02:20.902Z,5.55
2019-01-08T13:04:49.359Z,5.92
2019-01-08T13:07:17.858Z,5.20
2019-01-08T13:09:46.369Z,5.85
2019-01-08T13:12:16.481Z,5.58
2019-01-08T13:14:44.970Z,5.70
2019-01-08T13:17:15.475Z,4.50
2019-01-08T13:19:43.977Z,6.17
2019-01-08T13:22:12.444Z,5.90
2019-01-08T13:24:41.061Z,6.05
2019-01-08T13:27:09.664Z,6.90
2019-01-08T13:29:38.373Z,5.33
2019-01-08T13:32:06.941Z,6.05
2019-01-08T13:34:35.410Z,5.70
2019-01-08T13:37:03.983Z,6.17
2019-01-08T13:39:32.459Z,7.00
2019-01-08T13:42:01.052Z,7.03
2019-01-08T13:44:29.517Z,6.80
2019-01-08T13:46:57.964Z,6.67
2019-01-08T13:49:26.500Z,5.75
2019-01-08T13:51:55.064Z,6.20
2019-01-08T13:54:25.547Z,6.78
2019-01-08T13:56:54.420Z,6.45
2019-01-08T13:59:23.069Z,5.95
2019-01-08T14:01:52.131Z,6.03
2019-01-08T14:04:21.068Z,5.50
2019-01-08T14:06:49.959Z,5.40
2019-01-08T14:09:18.937Z,6.00
2019-01-08T14:11:48.067Z,5.90
2019-01-08T14:14:17.032Z,5.70
2019-01-08T14:16:48.160Z,5.65
2019-01-08T14:19:17.276Z,6.33
2019-01-08T14:21:46.272Z,5.92
2019-01-08T14:24:15.096Z,5.78
2019-01-08T14:26:43.627Z,7.00
2019-01-08T14:29:12.643Z,6.03
2019-01-08T14:31:41.725Z,5.53
2019-01-08T14:34:10.425Z,4.62
2019-01-08T14:36:39.453Z,6.22
2019-01-08T14:39:08.520Z,7.17
2019-01-08T14:41:37.234Z,6.42
2019-01-08T14:44:06.257Z,5.47
2019-01-08T14:46:35.213Z,5.90
2019-01-08T14:49:04.147Z,5.62
2019-01-08T14:51:33.371Z,5.00
2019-01-08T14:54:02.419Z,5.20
2019-01-08T14:56:36.040Z,5.90
2019-01-08T14:59:05.719Z,4.58
2019-01-08T15:01:37.353Z,5.55
2019-01-08T15:04:06.602Z,5.22
2019-01-08T15:06:35.720Z,5.20
2019-01-08T15:09:06.451Z,5.62
2019-01-08T15:11:35.409Z,5.28
2019-01-08T15:14:04.270Z,5.95
2019-01-08T15:16:32.854Z,5.72
2019-01-08T15:19:02.458Z,5.35
2019-01-08T15:21:31.463Z,5.22
2019-01-08T15:24:00.059Z,5.60
2019-01-08T15:26:29.522Z,5.00
2019-01-08T15:28:58.940Z,5.90
2019-01-08T15:31:27.674Z,8.30
2019-01-08T15:33:56.775Z,7.05
2019-01-08T15:36:28.257Z,4.83
2019-01-08T15:38:57.294Z,5.50
2019-01-08T15:41:25.946Z,4.97
2019-01-08T15:43:56.508Z,5.00
2019-01-08T15:46:25.373Z,5.28
2019-01-08T15:48:56.100Z,5.50
2019-01-08T15:51:28.483Z,4.10
2019-01-08T15:53:58.262Z,4.83
2019-01-08T15:56:27.109Z,6.45
2019-01-08T15:58:56.445Z,4.67
2019-01-08T16:01:28.731Z,5.28
2019-01-08T16:03:59.521Z,5.28
2019-01-08T16:06:28.355Z,5.97
2019-01-08T16:09:00.261Z,5.45
2019-01-08T16:11:29.338Z,6.55
2019-01-08T16:13:57.936Z,5.28
2019-01-08T16:16:29.494Z,6.15
2019-01-08T16:18:58.555Z,6.35
2019-01-08T16:21:27.740Z,4.62
2019-01-08T16:23:59.708Z,5.42
2019-01-08T16:26:30.123Z,8.45
2019-01-08T16:28:59.071Z,5.60
2019-01-08T16:31:29.166Z,5.85
2019-01-08T16:33:58.017Z,4.70
2019-01-08T16:36:27.098Z,6.33
2019-01-08T16:38:56.529Z,5.20
2019-01-08T16:41:25.444Z,4.60
2019-01-08T16:43:54.274Z,5.42
2019-01-08T16:46:26.468Z,6.65
2019-01-08T16:49:00.797Z,4.53
2019-01-08T16:51:30.172Z,6.00
2019-01-08T16:54:01.876Z,6.08
2019-01-08T16:56:32.963Z,4.62
2019-01-08T16:59:03.251Z,5.20
2019-01-08T17:01:36.543Z,4.95
2019-01-08T17:04:06.452Z,4.42
2019-01-08T17:06:35.319Z,4.83
2019-01-08T17:09:08.898Z,3.65
2019-01-08T17:11:40.687Z,3.60
2019-01-08T17:14:09.544Z,3.45
2019-01-08T17:16:38.526Z,4.83
2019-01-08T17:19:09.976Z,4.80
2019-01-08T17:21:38.925Z,4.30
2019-01-08T17:24:08.125Z,7.60
2019-01-08T17:26:37.364Z,5.17
2019-01-08T17:29:06.357Z,7.55
2019-01-08T17:31:36.388Z,5.08
2019-01-08T17:34:05.885Z,4.40
2019-01-08T17:36:36.687Z,5.33
2019-01-08T17:39:06.566Z,4.97
2019-01-08T17:41:35.668Z,4.00
2019-01-08T17:44:04.796Z,5.70
2019-01-08T17:46:35.710Z,2.95
2019-01-08T17:49:08.803Z,2.90
2019-01-08T17:51:38.602Z,4.15
2019-01-08T17:54:07.415Z,4.95
2019-01-08T17:56:36.762Z,5.30
2019-01-08T17:59:08.657Z,4.22
2019-01-08T18:01:39.585Z,3.52
2019-01-08T18:04:09.055Z,3.22
2019-01-08T18:06:41.147Z,7.28
2019-01-08T18:09:12.146Z,4.95
2019-01-08T18:11:42.197Z,3.85
2019-01-08T18:14:14.347Z,3.80
2019-01-08T18:16:43.324Z,5.30
2019-01-08T18:20:05.449Z,3.35
2019-01-08T18:22:34.346Z,3.33
2019-01-08T18:25:08.139Z,3.47
2019-01-08T18:27:38.702Z,3.72
2019-01-08T18:30:10.593Z,3.70
2019-01-08T18:32:39.895Z,5.08
2019-01-08T18:35:09.019Z,3.02
2019-01-08T18:37:39.988Z,3.80
2019-01-08T18:40:09.134Z,4.53
2019-01-08T18:42:39.688Z,3.85
2019-01-08T18:45:08.741Z,4.45
2019-01-08T18:47:37.514Z,4.25
2019-01-08T18:50:06.440Z,6.45
2019-01-08T18:52:35.442Z,4.37
2019-01-08T18:55:04.539Z,5.90
2019-01-08T18:57:33.670Z,7.10
2019-01-08T19:00:04.132Z,4.80
2019-01-08T19:02:33.294Z,3.85
2019-01-08T19:05:02.598Z,4.35
2019-01-08T19:07:33.491Z,3.80
2019-01-08T19:10:08.118Z,3.75
2019-01-08T19:12:37.880Z,6.60
2019-01-08T19:15:07.603Z,4.20
2019-01-08T19:17:39.882Z,6.00
2019-01-08T19:20:10.337Z,3.65
2019-01-08T19:22:39.588Z,3.22
2019-01-08T19:25:09.911Z,4.80
2019-01-08T19:27:38.764Z,4.85
2019-01-08T19:30:11.323Z,3.37
2019-01-08T19:32:41.876Z,4.53
2019-01-08T19:35:14.880Z,3.08
2019-01-08T19:37:43.843Z,2.70
2019-01-08T19:40:24.775Z,4.80
2019-01-08T19:42:56.496Z,4.35
2019-01-08T19:45:25.159Z,3.60
2019-01-08T19:48:01.015Z,3.17
2019-01-08T19:50:31.708Z,4.58
2019-01-08T19:53:02.896Z,9.63
2019-01-08T19:55:31.606Z,6.75
2019-01-08T19:58:01.603Z,4.17
2019-01-08T20:00:30.717Z,6.50
2019-01-08T20:03:01.586Z,5.97
2019-01-08T20:05:35.599Z,6.65
2019-01-08T20:08:10.372Z,6.60
2019-01-08T20:10:39.536Z,7.37
2019-01-08T20:13:08.815Z,8.25
2019-01-08T20:15:37.871Z,6.53
2019-01-08T20:18:06.878Z,6.87
2019-01-08T20:20:35.707Z,4.58
2019-01-08T20:23:09.832Z,5.58
2019-01-08T20:25:38.705Z,5.58
2019-01-08T20:28:07.731Z,8.00
2019-01-08T20:30:38.445Z,6.70
2019-01-08T20:33:07.440Z,4.92
2019-01-08T20:35:37.867Z,5.35
2019-01-08T20:38:09.743Z,5.75
2019-01-08T20:40:39.077Z,4.97
2019-01-08T20:43:08.279Z,5.28
2019-01-08T20:45:37.435Z,4.78
2019-01-08T20:48:06.557Z,6.37
2019-01-08T20:50:41.574Z,4.72
2019-01-08T20:53:12.913Z,4.25
2019-01-08T20:55:44.834Z,3.30
2019-01-08T20:58:16.434Z,4.90
2019-01-08T21:00:46.462Z,4.92
2019-01-08T21:03:16.414Z,4.55
2019-01-08T21:05:49.967Z,3.98
2019-01-08T21:08:19.051Z,4.37
2019-01-08T21:10:49.041Z,4.35
2019-01-08T21:13:21.385Z,3.92
2019-01-08T21:15:51.767Z,4.17
2019-01-08T21:18:26.472Z,3.47
2019-01-08T21:20:57.175Z,4.20
2019-01-08T21:23:27.397Z,4.05
2019-01-08T21:25:56.374Z,4.53
2019-01-08T21:28:25.369Z,5.30
2019-01-08T21:30:58.992Z,4.37
2019-01-08T21:33:30.797Z,5.80
2019-01-08T21:36:02.318Z,4.55
2019-01-08T21:38:33.448Z,5.12
2019-01-08T21:41:04.116Z,5.00
2019-01-08T21:43:33.393Z,5.12
2019-01-08T21:46:03.581Z,7.28
2019-01-08T21:48:33.541Z,9.60
2019-01-08T21:51:03.945Z,4.90
2019-01-08T21:53:37.904Z,4.40
2019-01-08T21:56:14.689Z,7.03
2019-01-08T21:58:48.116Z,6.87
2019-01-08T22:01:17.264Z,7.50
2019-01-08T22:04:09.135Z,7.35
2019-01-08T22:06:22.965Z,6.62
2019-01-08T22:08:54.643Z,4.83
2019-01-08T22:11:23.991Z,5.12
2019-01-08T22:13:53.250Z,5.97
2019-01-08T22:16:21.828Z,6.72
2019-01-08T22:18:51.388Z,5.50
2019-01-08T22:21:19.944Z,7.37
2019-01-08T22:23:48.710Z,6.03
2019-01-08T22:26:17.988Z,6.25
2019-01-08T22:28:46.632Z,6.20
2019-01-08T22:31:15.132Z,5.87
2019-01-08T22:33:43.666Z,4.60
2019-01-08T22:36:12.257Z,5.42
2019-01-08T22:38:40.865Z,3.65
2019-01-08T22:41:09.853Z,4.00
2019-01-08T22:43:38.687Z,5.08
2019-01-08T22:46:07.429Z,4.70
2019-01-08T22:48:37.762Z,4.95
2019-01-08T22:51:06.429Z,3.60
2019-01-08T22:53:37.452Z,5.87
2019-01-08T22:56:06.129Z,4.85
2019-01-08T22:58:34.711Z,4.72
2019-01-08T23:01:10.843Z,3.92
2019-01-08T23:03:39.497Z,4.40
2019-01-08T23:06:10.602Z,4.20
2019-01-08T23:08:39.222Z,3.80
2019-01-08T23:11:12.229Z,2.92
2019-01-08T23:13:40.987Z,3.00
2019-01-08T23:16:13.692Z,3.95
2019-01-08T23:18:42.643Z,2.65
2019-01-08T23:27:59.972Z,1.87
2019-01-08T23:30:30.211Z,1.95
2019-01-08T23:32:58.785Z,1.75
2019-01-08T23:35:29.151Z,2.40
2019-01-08T23:37:57.702Z,3.98
2019-01-08T23:40:26.386Z,4.35
2019-01-08T23:42:55.005Z,5.08
2019-01-08T23:45:26.291Z,3.80
2019-01-08T23:48:05.592Z,3.80
2019-01-08T23:50:34.380Z,4.75
2019-01-08T23:53:07.505Z,4.65
2019-01-08T23:55:39.748Z,8.53
2019-01-08T23:58:18.807Z,3.72
